createdAt,value
2017-04-22T00:00:16.522Z,1020.83
2017-04-22T00:01:26.695Z,1020.79
2017-04-22T00:02:36.904Z,1020.75
2017-04-22T00:03:47.127Z,1020.77
2017-04-22T00:04:57.349Z,1020.78
2017-04-22T00:06:07.619Z,1020.75
2017-04-22T00:07:17.542Z,1020.73
2017-04-22T00:08:27.472Z,1020.74
2017-04-22T00:09:37.722Z,1020.74
2017-04-22T00:10:47.637Z,1020.75
2017-04-22T00:11:57.333Z,1020.73
2017-04-22T00:13:07.251Z,1020.73
2017-04-22T00:14:17.165Z,1020.73
2017-04-22T00:15:27.390Z,1020.71
2017-04-22T00:16:36.689Z,1020.7
2017-04-22T00:17:46.390Z,1020.66
2017-04-22T00:18:55.991Z,1020.69
2017-04-22T00:20:05.893Z,1020.67
2017-04-22T00:21:15.190Z,1020.65
2017-04-22T00:22:24.803Z,1020.62
2017-04-22T00:23:35.277Z,1020.6
2017-04-22T00:24:44.868Z,1020.63
2017-04-22T00:25:54.509Z,1020.65
2017-04-22T00:27:04.735Z,1020.63
2017-04-22T00:28:14.948Z,1020.6
2017-04-22T00:29:25.205Z,1020.62
2017-04-22T00:30:34.806Z,1020.62
2017-04-22T00:31:44.747Z,1020.62
2017-04-22T00:32:54.653Z,1020.58
2017-04-22T00:34:04.875Z,1020.61
2017-04-22T00:35:15.278Z,1020.56
2017-04-22T00:36:24.886Z,1020.58
2017-04-22T00:37:34.814Z,1020.54
2017-04-22T00:38:44.731Z,1020.49
2017-04-22T00:39:54.972Z,1020.5
2017-04-22T00:41:05.484Z,1020.5
2017-04-22T00:42:14.790Z,1020.49
2017-04-22T00:43:25.126Z,1020.48
2017-04-22T00:44:35.053Z,1020.48
2017-04-22T00:45:45.179Z,1020.48
2017-04-22T00:46:55.464Z,1020.5
2017-04-22T00:48:05.675Z,1020.45
2017-04-22T00:49:15.583Z,1020.46
2017-04-22T00:50:25.186Z,1020.44
2017-04-22T00:51:35.322Z,1020.41
2017-04-22T00:52:45.373Z,1020.39
2017-04-22T00:53:54.669Z,1020.36
2017-04-22T00:55:04.586Z,1020.34
2017-04-22T00:56:14.796Z,1020.37
2017-04-22T00:57:25.015Z,1020.35
2017-04-22T00:58:35.080Z,1020.29
2017-04-22T00:59:45.290Z,1020.29
2017-04-22T01:00:55.504Z,1020.3
2017-04-22T01:02:05.413Z,1020.28
2017-04-22T01:03:14.721Z,1020.22
2017-04-22T01:04:25.090Z,1020.28
2017-04-22T01:05:35.295Z,1020.27
2017-04-22T01:06:45.511Z,1020.27
2017-04-22T01:07:55.744Z,1020.27
2017-04-22T01:09:05.979Z,1020.26
2017-04-22T01:10:16.507Z,1020.26
2017-04-22T01:11:25.861Z,1020.26
2017-04-22T01:12:35.461Z,1020.19
2017-04-22T01:13:45.691Z,1020.2
2017-04-22T01:14:55.938Z,1020.18
2017-04-22T01:16:05.945Z,1020.16
2017-04-22T01:17:15.884Z,1020.13
2017-04-22T01:18:25.522Z,1020.14
2017-04-22T01:19:35.134Z,1020.14
2017-04-22T01:20:44.797Z,1020.14
2017-04-22T01:21:54.966Z,1020.09
2017-04-22T01:23:05.177Z,1020.09
2017-04-22T01:24:15.401Z,1020.07
2017-04-22T01:25:25.029Z,1020.06
2017-04-22T01:26:35.242Z,1020.03
2017-04-22T01:27:45.865Z,1019.98
2017-04-22T01:28:56.101Z,1020.01
2017-04-22T01:30:06.340Z,1019.97
2017-04-22T01:31:16.552Z,1019.96
2017-04-22T01:32:26.140Z,1019.94
2017-04-22T01:33:36.320Z,1019.87
2017-04-22T01:34:46.247Z,1019.91
2017-04-22T01:35:56.158Z,1019.88
2017-04-22T01:37:06.384Z,1019.9
2017-04-22T01:38:16.306Z,1019.88
2017-04-22T01:39:26.018Z,1019.84
2017-04-22T01:40:36.240Z,1019.83
2017-04-22T01:41:45.836Z,1019.85
2017-04-22T01:42:55.455Z,1019.84
2017-04-22T01:44:05.369Z,1019.79
2017-04-22T01:45:15.522Z,1019.8
2017-04-22T01:46:25.447Z,1019.79
2017-04-22T01:47:34.731Z,1019.77
2017-04-22T01:48:44.634Z,1019.77
2017-04-22T01:49:54.538Z,1019.74
2017-04-22T01:51:04.904Z,1019.74
2017-04-22T01:52:14.501Z,1019.76
2017-04-22T01:53:24.094Z,1019.7
2017-04-22T01:54:34.022Z,1019.71
2017-04-22T01:55:44.240Z,1019.72
2017-04-22T01:56:54.391Z,1019.68
2017-04-22T01:58:04.294Z,1019.69
2017-04-22T01:59:14.211Z,1019.71
2017-04-22T02:00:24.437Z,1019.68
2017-04-22T02:01:34.357Z,1019.67
2017-04-22T02:02:44.830Z,1019.71
2017-04-22T02:03:54.771Z,1019.69
2017-04-22T02:05:04.375Z,1019.72
2017-04-22T02:06:13.670Z,1019.69
2017-04-22T02:07:23.590Z,1019.68
2017-04-22T02:08:33.298Z,1019.67
2017-04-22T02:09:43.202Z,1019.7
2017-04-22T02:10:53.243Z,1019.65
2017-04-22T02:12:03.348Z,1019.65
2017-04-22T02:13:13.262Z,1019.65
2017-04-22T02:14:23.859Z,1019.67
2017-04-22T02:15:33.761Z,1019.61
2017-04-22T02:16:43.982Z,1019.6
2017-04-22T02:17:54.206Z,1019.59
2017-04-22T02:19:04.116Z,1019.58
2017-04-22T02:20:14.645Z,1019.53
2017-04-22T02:21:24.236Z,1019.54
2017-04-22T02:22:33.837Z,1019.53
2017-04-22T02:23:43.433Z,1019.51
2017-04-22T02:24:53.662Z,1019.49
2017-04-22T02:26:03.211Z,1019.47
2017-04-22T02:27:12.523Z,1019.48
2017-04-22T02:28:22.424Z,1019.47
2017-04-22T02:29:31.717Z,1019.46
2017-04-22T02:30:41.924Z,1019.42
2017-04-22T02:31:51.678Z,1019.44
2017-04-22T02:33:01.898Z,1019.4
2017-04-22T02:34:11.811Z,1019.36
2017-04-22T02:35:21.410Z,1019.39
2017-04-22T02:36:31.323Z,1019.38
2017-04-22T02:37:41.175Z,1019.35
2017-04-22T02:38:50.478Z,1019.39
2017-04-22T02:40:00.393Z,1019.36
2017-04-22T02:41:10.003Z,1019.35
2017-04-22T02:42:20.213Z,1019.33
2017-04-22T02:43:31.145Z,1019.34
2017-04-22T02:44:41.053Z,1019.32
2017-04-22T02:45:50.968Z,1019.33
2017-04-22T02:47:01.198Z,1019.33
2017-04-22T02:48:11.127Z,1019.31
2017-04-22T02:49:21.042Z,1019.3
2017-04-22T02:50:30.037Z,1019.31
2017-04-22T02:51:39.643Z,1019.29
2017-04-22T02:52:49.239Z,1019.31
2017-04-22T02:53:59.569Z,1019.29
2017-04-22T02:55:09.765Z,1019.28
2017-04-22T02:56:19.376Z,1019.27
2017-04-22T02:57:29.272Z,1019.22
2017-04-22T02:58:39.179Z,1019.21
2017-04-22T02:59:49.096Z,1019.18
2017-04-22T03:00:59.161Z,1019.23
2017-04-22T03:02:09.063Z,1019.24
2017-04-22T03:03:18.969Z,1019.24
2017-04-22T03:04:28.570Z,1019.2
2017-04-22T03:05:38.782Z,1019.2
2017-04-22T03:06:48.849Z,1019.19
2017-04-22T03:07:58.749Z,1019.18
2017-04-22T03:09:08.964Z,1019.17
2017-04-22T03:10:18.871Z,1019.23
2017-04-22T03:11:29.091Z,1019.18
2017-04-22T03:12:39.036Z,1019.16
2017-04-22T03:13:48.950Z,1019.18
2017-04-22T03:14:58.570Z,1019.16
2017-04-22T03:16:08.168Z,1019.14
2017-04-22T03:17:17.770Z,1019.11
2017-04-22T03:18:28.135Z,1019.19
2017-04-22T03:19:37.747Z,1019.18
2017-04-22T03:20:48.021Z,1019.12
2017-04-22T03:21:57.934Z,1019.16
2017-04-22T03:23:07.537Z,1019.11
2017-04-22T03:24:17.387Z,1019.08
2017-04-22T03:25:26.988Z,1019.1
2017-04-22T03:26:36.611Z,1019.02
2017-04-22T03:27:46.516Z,1019.02
2017-04-22T03:28:56.720Z,1019.04
2017-04-22T03:30:06.635Z,1019.05
2017-04-22T03:31:16.226Z,1019.03
2017-04-22T03:32:26.138Z,1019.01
2017-04-22T03:33:36.040Z,1019.03
2017-04-22T03:34:45.951Z,1018.96
2017-04-22T03:35:56.216Z,1019
2017-04-22T03:37:06.177Z,1018.94
2017-04-22T03:38:16.089Z,1018.97
2017-04-22T03:39:26.364Z,1018.97
2017-04-22T03:40:35.657Z,1018.95
2017-04-22T03:41:45.211Z,1018.95
2017-04-22T03:42:55.118Z,1018.96
2017-04-22T03:44:05.330Z,1018.95
2017-04-22T03:45:15.236Z,1018.95
2017-04-22T03:46:25.201Z,1018.95
2017-04-22T03:47:35.631Z,1018.93
2017-04-22T03:48:45.224Z,1018.89
2017-04-22T03:49:55.134Z,1018.91
2017-04-22T03:51:04.735Z,1018.9
2017-04-22T03:52:14.350Z,1018.87
2017-04-22T03:53:24.555Z,1018.86
2017-04-22T03:54:33.848Z,1018.88
2017-04-22T03:55:44.062Z,1018.85
2017-04-22T03:56:53.970Z,1018.83
2017-04-22T03:58:03.586Z,1018.86
2017-04-22T03:59:13.963Z,1018.85
2017-04-22T04:00:23.936Z,1018.81
2017-04-22T04:01:33.845Z,1018.83
2017-04-22T04:02:44.077Z,1018.82
2017-04-22T04:03:53.993Z,1018.82
2017-04-22T04:05:04.252Z,1018.8
2017-04-22T04:06:14.461Z,1018.81
2017-04-22T04:07:24.679Z,1018.79
2017-04-22T04:08:34.891Z,1018.84
2017-04-22T04:09:45.129Z,1018.83
2017-04-22T04:10:55.384Z,1018.76
2017-04-22T04:12:05.600Z,1018.78
2017-04-22T04:13:15.641Z,1018.95
2017-04-22T04:14:25.910Z,1019.31
2017-04-22T04:15:36.127Z,1019.29
2017-04-22T04:16:46.286Z,1019.25
2017-04-22T04:17:56.188Z,1019.24
2017-04-22T04:19:06.087Z,1019.25
2017-04-22T04:20:16.303Z,1019.23
2017-04-22T04:21:26.515Z,1019.31
2017-04-22T04:22:36.361Z,1019.3
2017-04-22T04:23:46.268Z,1019.39
2017-04-22T04:24:56.185Z,1019.39
2017-04-22T04:26:06.399Z,1019.43
2017-04-22T04:27:16.298Z,1019.42
2017-04-22T04:28:26.482Z,1019.5
2017-04-22T04:29:36.387Z,1019.49
2017-04-22T04:30:46.325Z,1019.55
2017-04-22T04:31:56.255Z,1019.53
2017-04-22T04:33:06.479Z,1019.59
2017-04-22T04:34:17.049Z,1019.64
2017-04-22T04:35:26.809Z,1019.68
2017-04-22T04:36:36.417Z,1019.7
2017-04-22T04:37:46.319Z,1019.78
2017-04-22T04:38:56.541Z,1019.8
2017-04-22T04:40:06.904Z,1019.91
2017-04-22T04:41:16.507Z,1019.89
2017-04-22T04:42:26.437Z,1019.97
2017-04-22T04:43:35.742Z,1019.9
2017-04-22T04:44:45.336Z,1019.95
2017-04-22T04:45:55.538Z,1020.04
2017-04-22T04:47:05.742Z,1020.1
2017-04-22T04:48:15.954Z,1020.08
2017-04-22T04:49:25.865Z,1020.11
2017-04-22T04:50:35.478Z,1020.18
2017-04-22T04:51:45.227Z,1020.23
2017-04-22T04:52:55.442Z,1020.24
2017-04-22T04:54:05.650Z,1020.26
2017-04-22T04:55:15.274Z,1020.23
2017-04-22T04:56:25.175Z,1020.29
2017-04-22T04:57:35.268Z,1020.25
2017-04-22T04:58:44.867Z,1020.29
2017-04-22T04:59:54.464Z,1020.27
2017-04-22T05:01:04.673Z,1020.28
2017-04-22T05:02:14.339Z,1020.35
2017-04-22T05:03:24.647Z,1020.33
2017-04-22T05:04:34.847Z,1020.35
2017-04-22T05:05:44.747Z,1020.39
2017-04-22T05:06:54.644Z,1020.34
2017-04-22T05:08:04.852Z,1020.38
2017-04-22T05:09:14.618Z,1020.34
2017-04-22T05:10:24.537Z,1020.39
2017-04-22T05:11:34.430Z,1020.38
2017-04-22T05:12:44.651Z,1020.42
2017-04-22T05:13:54.559Z,1020.4
2017-04-22T05:15:04.406Z,1020.45
2017-04-22T05:16:14.001Z,1020.45
2017-04-22T05:17:24.207Z,1020.52
2017-04-22T05:18:33.803Z,1020.54
2017-04-22T05:19:43.405Z,1020.58
2017-04-22T05:20:53.947Z,1020.59
2017-04-22T05:22:02.942Z,1020.61
2017-04-22T05:23:12.853Z,1020.62
2017-04-22T05:24:22.757Z,1020.64
2017-04-22T05:25:32.654Z,1020.63
2017-04-22T05:26:42.417Z,1020.68
2017-04-22T05:27:52.014Z,1020.71
2017-04-22T05:29:01.945Z,1020.7
2017-04-22T05:30:12.157Z,1020.72
2017-04-22T05:33:54.565Z,1020.78
2017-04-22T05:35:04.778Z,1020.77
2017-04-22T05:36:15.019Z,1020.78
2017-04-22T05:37:24.922Z,1020.75
2017-04-22T05:38:34.515Z,1020.75
2017-04-22T05:39:44.734Z,1020.79
2017-04-22T05:40:54.829Z,1020.79
2017-04-22T05:42:04.735Z,1020.81
2017-04-22T05:43:14.037Z,1020.77
2017-04-22T05:44:23.942Z,1020.77
2017-04-22T05:45:33.639Z,1020.8
2017-04-22T05:46:43.248Z,1020.78
2017-04-22T05:47:53.452Z,1020.8
2017-04-22T05:49:03.379Z,1020.8
2017-04-22T05:50:13.604Z,1020.84
2017-04-22T05:51:23.859Z,1020.79
2017-04-22T05:52:34.068Z,1020.77
2017-04-22T05:53:43.969Z,1020.78
2017-04-22T05:54:53.877Z,1020.78
2017-04-22T05:56:03.787Z,1020.77
2017-04-22T05:57:14.032Z,1020.76
2017-04-22T05:58:23.627Z,1020.76
2017-04-22T05:59:33.536Z,1020.8
2017-04-22T06:00:42.836Z,1020.82
2017-04-22T06:01:53.046Z,1020.81
2017-04-22T06:03:03.115Z,1020.84
2017-04-22T06:04:12.739Z,1020.85
2017-04-22T06:05:22.966Z,1020.85
2017-04-22T06:06:33.173Z,1020.86
2017-04-22T06:07:42.772Z,1020.85
2017-04-22T06:08:52.727Z,1020.87
2017-04-22T06:10:03.000Z,1020.86
2017-04-22T06:11:12.791Z,1020.9
2017-04-22T06:12:22.692Z,1020.95
2017-04-22T06:13:32.604Z,1020.97
2017-04-22T06:14:42.822Z,1020.99
2017-04-22T06:15:52.723Z,1021.02
2017-04-22T06:17:02.018Z,1021.05
2017-04-22T06:18:12.229Z,1021.09
2017-04-22T06:19:22.140Z,1021.11
2017-04-22T06:20:32.206Z,1021.11
2017-04-22T06:21:41.801Z,1021.15
2017-04-22T06:22:52.052Z,1021.16
2017-04-22T06:24:02.355Z,1021.16
2017-04-22T06:25:12.656Z,1021.19
2017-04-22T06:26:22.947Z,1021.18
2017-04-22T06:27:32.866Z,1021.12
2017-04-22T06:28:42.468Z,1021.11
2017-04-22T06:29:52.059Z,1021.16
2017-04-22T06:31:01.893Z,1021.15
2017-04-22T06:32:12.280Z,1021.19
2017-04-22T06:33:22.236Z,1021.18
2017-04-22T06:34:32.169Z,1021.17
2017-04-22T06:35:42.106Z,1021.2
2017-04-22T06:36:51.484Z,1021.21
2017-04-22T06:38:01.815Z,1021.19
2017-04-22T06:39:11.432Z,1021.23
2017-04-22T06:40:21.052Z,1021.21
2017-04-22T06:41:30.993Z,1021.18
2017-04-22T06:42:41.042Z,1021.13
2017-04-22T06:43:50.895Z,1021.1
2017-04-22T06:45:00.518Z,1021.1
2017-04-22T06:46:10.445Z,1021.17
2017-04-22T06:47:20.047Z,1021.14
2017-04-22T06:48:29.751Z,1021.19
2017-04-22T06:49:40.431Z,1021.19
2017-04-22T06:50:50.343Z,1021.19
2017-04-22T06:52:00.614Z,1021.18
2017-04-22T06:53:10.553Z,1021.17
2017-04-22T06:54:20.483Z,1021.19
2017-04-22T06:55:30.086Z,1021.2
2017-04-22T06:56:40.386Z,1021.2
2017-04-22T06:57:50.591Z,1021.24
2017-04-22T06:59:00.547Z,1021.24
2017-04-22T07:00:10.156Z,1021.22
2017-04-22T07:01:19.797Z,1021.25
2017-04-22T07:02:29.709Z,1021.27
2017-04-22T07:03:39.639Z,1021.29
2017-04-22T07:04:49.855Z,1021.32
2017-04-22T07:06:00.064Z,1021.3
2017-04-22T07:07:10.077Z,1021.29
2017-04-22T07:08:20.312Z,1021.27
2017-04-22T07:09:30.529Z,1021.28
2017-04-22T07:10:40.440Z,1021.29
2017-04-22T07:11:50.059Z,1021.33
2017-04-22T07:12:59.904Z,1021.31
2017-04-22T07:14:09.579Z,1021.34
2017-04-22T07:15:19.826Z,1021.35
2017-04-22T07:16:30.089Z,1021.37
2017-04-22T07:17:39.430Z,1021.37
2017-04-22T07:18:49.683Z,1021.42
2017-04-22T07:19:59.913Z,1021.41
2017-04-22T07:21:09.839Z,1021.41
2017-04-22T07:22:19.309Z,1021.43
2017-04-22T07:23:29.098Z,1021.44
2017-04-22T07:24:39.887Z,1021.37
2017-04-22T07:25:50.210Z,1021.34
2017-04-22T07:27:01.218Z,1021.28
2017-04-22T07:28:10.297Z,1021.3
2017-04-22T07:29:19.931Z,1021.28
2017-04-22T07:30:29.905Z,1021.28
2017-04-22T07:31:41.265Z,1021.29
2017-04-22T07:32:50.955Z,1021.27
2017-04-22T07:34:01.278Z,1021.26
2017-04-22T07:35:11.218Z,1021.17
2017-04-22T07:36:21.983Z,1021.13
2017-04-22T07:37:31.670Z,1021.19
2017-04-22T07:38:41.747Z,1021.19
2017-04-22T07:39:52.015Z,1021.16
2017-04-22T07:41:01.068Z,1021.16
2017-04-22T07:42:10.852Z,1021.15
2017-04-22T07:43:21.081Z,1021.18
2017-04-22T07:44:30.998Z,1021.2
2017-04-22T07:45:40.902Z,1021.19
2017-04-22T07:46:50.834Z,1021.18
2017-04-22T07:48:01.036Z,1021.18
2017-04-22T07:49:11.007Z,1021.22
2017-04-22T07:50:21.424Z,1021.22
2017-04-22T07:51:32.174Z,1021.21
2017-04-22T07:52:41.862Z,1021.17
2017-04-22T07:53:52.082Z,1021.2
2017-04-22T07:55:01.991Z,1021.24
2017-04-22T07:56:12.237Z,1021.25
2017-04-22T07:57:22.043Z,1021.22
2017-04-22T07:58:32.420Z,1021.28
2017-04-22T07:59:42.570Z,1021.25
2017-04-22T08:00:52.502Z,1021.27
2017-04-22T08:02:01.849Z,1021.25
2017-04-22T08:03:11.254Z,1021.26
2017-04-22T08:04:21.203Z,1021.26
2017-04-22T08:05:31.149Z,1021.29
2017-04-22T08:06:41.092Z,1021.28
2017-04-22T08:07:52.041Z,1021.23
2017-04-22T08:09:02.275Z,1021.27
2017-04-22T08:10:12.494Z,1021.29
2017-04-22T08:11:22.690Z,1021.25
2017-04-22T08:12:32.888Z,1021.28
2017-04-22T08:13:42.815Z,1021.26
2017-04-22T08:14:52.532Z,1021.23
2017-04-22T08:16:01.916Z,1021.25
2017-04-22T08:17:12.176Z,1021.24
2017-04-22T08:18:21.468Z,1021.24
2017-04-22T08:19:31.723Z,1021.3
2017-04-22T08:20:41.620Z,1021.23
2017-04-22T08:21:51.830Z,1021.29
2017-04-22T08:23:02.196Z,1021.3
2017-04-22T08:24:12.111Z,1021.26
2017-04-22T08:25:21.718Z,1021.25
2017-04-22T08:26:31.330Z,1021.29
2017-04-22T08:27:41.537Z,1021.25
2017-04-22T08:28:50.938Z,1021.22
2017-04-22T08:30:01.149Z,1021.21
2017-04-22T08:31:10.751Z,1021.24
2017-04-22T08:32:20.971Z,1021.2
2017-04-22T08:33:31.216Z,1021.18
2017-04-22T08:34:41.796Z,1021.23
2017-04-22T08:35:52.032Z,1021.24
2017-04-22T08:37:01.637Z,1021.25
2017-04-22T08:38:11.239Z,1021.2
2017-04-22T08:39:21.146Z,1021.22
2017-04-22T08:40:31.210Z,1021.21
2017-04-22T08:41:40.515Z,1021.22
2017-04-22T08:42:50.423Z,1021.24
2017-04-22T08:44:00.647Z,1021.27
2017-04-22T08:45:10.864Z,1021.24
2017-04-22T08:46:21.089Z,1021.25
2017-04-22T08:47:31.330Z,1021.2
2017-04-22T08:48:41.555Z,1021.21
2017-04-22T08:49:51.785Z,1021.16
2017-04-22T08:51:01.401Z,1021.17
2017-04-22T08:52:11.268Z,1021.23
2017-04-22T08:53:20.880Z,1021.22
2017-04-22T08:54:30.796Z,1021.2
2017-04-22T08:55:40.398Z,1021.28
2017-04-22T08:56:50.315Z,1021.29
2017-04-22T08:58:00.686Z,1021.26
2017-04-22T08:59:10.910Z,1021.27
2017-04-22T09:00:20.215Z,1021.27
2017-04-22T09:01:30.865Z,1021.29
2017-04-22T09:02:41.084Z,1021.29
2017-04-22T09:03:51.150Z,1021.34
2017-04-22T09:05:01.374Z,1021.34
2017-04-22T09:06:11.596Z,1021.33
2017-04-22T09:07:21.203Z,1021.32
2017-04-22T09:08:31.509Z,1021.39
2017-04-22T09:09:42.523Z,1021.37
2017-04-22T09:10:53.624Z,1021.39
2017-04-22T09:12:02.926Z,1021.35
2017-04-22T09:13:12.846Z,1021.31
2017-04-22T09:14:22.469Z,1021.36
2017-04-22T09:15:32.618Z,1021.32
2017-04-22T09:16:42.539Z,1021.39
2017-04-22T09:17:52.453Z,1021.34
2017-04-22T09:19:03.046Z,1021.33
2017-04-22T09:20:12.648Z,1021.35
2017-04-22T09:21:23.009Z,1021.41
2017-04-22T09:22:32.618Z,1021.41
2017-04-22T09:23:42.231Z,1021.41
2017-04-22T09:24:52.448Z,1021.35
2017-04-22T09:26:02.363Z,1021.38
2017-04-22T09:27:12.420Z,1021.35
2017-04-22T09:28:22.332Z,1021.27
2017-04-22T09:29:32.266Z,1021.32
2017-04-22T09:30:42.551Z,1021.36
2017-04-22T09:31:52.809Z,1021.32
2017-04-22T09:33:01.904Z,1021.32
2017-04-22T09:34:11.992Z,1021.35
2017-04-22T09:35:22.536Z,1021.38
2017-04-22T09:36:32.502Z,1021.36
2017-04-22T09:37:42.112Z,1021.32
2017-04-22T09:38:52.174Z,1021.33
2017-04-22T09:40:02.084Z,1021.33
2017-04-22T09:41:11.371Z,1021.33
2017-04-22T09:42:20.680Z,1021.33
2017-04-22T09:43:30.576Z,1021.31
2017-04-22T09:44:41.391Z,1021.31
2017-04-22T09:45:51.724Z,1021.34
2017-04-22T09:47:01.979Z,1021.33
2017-04-22T09:48:11.640Z,1021.32
2017-04-22T09:49:20.686Z,1021.34
2017-04-22T09:50:31.089Z,1021.33
2017-04-22T09:51:41.025Z,1021.31
2017-04-22T09:52:50.925Z,1021.33
2017-04-22T09:54:01.151Z,1021.31
2017-04-22T09:55:11.076Z,1021.31
2017-04-22T09:56:21.542Z,1021.31
2017-04-22T09:57:31.773Z,1021.33
2017-04-22T09:58:41.695Z,1021.33
2017-04-22T09:59:51.667Z,1021.3
2017-04-22T10:01:01.908Z,1021.32
2017-04-22T10:02:11.683Z,1021.29
2017-04-22T10:03:21.293Z,1021.32
2017-04-22T10:04:31.598Z,1021.29
2017-04-22T10:05:41.210Z,1021.27
2017-04-22T10:06:51.141Z,1021.3
2017-04-22T10:08:01.675Z,1021.32
2017-04-22T10:09:11.309Z,1021.31
2017-04-22T10:10:21.245Z,1021.25
2017-04-22T10:11:31.483Z,1021.26
2017-04-22T10:12:42.084Z,1021.2
2017-04-22T10:13:52.101Z,1021.22
2017-04-22T10:15:02.043Z,1021.21
2017-04-22T10:16:12.773Z,1021.19
2017-04-22T10:17:23.168Z,1021.2
2017-04-22T10:18:33.392Z,1021.18
2017-04-22T10:19:43.795Z,1021.21
2017-04-22T10:20:53.713Z,1021.2
2017-04-22T10:22:03.338Z,1021.2
2017-04-22T10:23:12.935Z,1021.2
2017-04-22T10:24:22.541Z,1021.14
2017-04-22T10:25:32.873Z,1021.18
2017-04-22T10:26:42.820Z,1021.12
2017-04-22T10:27:52.446Z,1021.19
2017-04-22T10:29:02.367Z,1021.13
2017-04-22T10:30:12.628Z,1021.15
2017-04-22T10:31:22.806Z,1021.05
2017-04-22T10:32:33.016Z,1021.1
2017-04-22T10:33:43.116Z,1021.1
2017-04-22T10:34:52.722Z,1021.13
2017-04-22T10:36:02.986Z,1021.01
2017-04-22T10:37:13.518Z,1021.05
2017-04-22T10:38:23.132Z,1021.07
2017-04-22T10:39:33.050Z,1021.08
2017-04-22T10:40:43.276Z,1021.08
2017-04-22T10:41:53.487Z,1021.1
2017-04-22T10:43:03.754Z,1021.09
2017-04-22T10:44:13.382Z,1021.12
2017-04-22T10:45:23.289Z,1021.11
2017-04-22T10:46:33.203Z,1021.12
2017-04-22T10:47:43.104Z,1021.16
2017-04-22T10:48:53.057Z,1021.19
2017-04-22T10:50:02.654Z,1021.2
2017-04-22T10:51:12.040Z,1021.26
2017-04-22T10:52:21.949Z,1021.33
2017-04-22T10:53:31.553Z,1021.35
2017-04-22T10:54:41.844Z,1021.41
2017-04-22T10:55:51.764Z,1021.39
2017-04-22T10:57:01.705Z,1021.36
2017-04-22T10:58:11.621Z,1021.32
2017-04-22T10:59:21.867Z,1021.36
2017-04-22T11:00:32.347Z,1021.36
2017-04-22T11:01:42.535Z,1021.27
2017-04-22T11:02:52.753Z,1021.26
2017-04-22T11:04:02.985Z,1021.22
2017-04-22T11:05:12.602Z,1021.26
2017-04-22T11:06:22.969Z,1021.2
2017-04-22T11:07:32.562Z,1021.23
2017-04-22T11:08:42.173Z,1021.19
2017-04-22T11:09:51.773Z,1021.26
2017-04-22T11:11:01.378Z,1021.18
2017-04-22T11:12:11.401Z,1021.14
2017-04-22T11:13:21.754Z,1021.19
2017-04-22T11:14:31.818Z,1021.15
2017-04-22T11:15:41.779Z,1021.1
2017-04-22T11:16:51.688Z,1021.04
2017-04-22T11:18:01.762Z,1021.03
2017-04-22T11:19:11.359Z,1020.97
2017-04-22T11:20:21.279Z,1020.98
2017-04-22T11:21:31.669Z,1020.94
2017-04-22T11:22:42.098Z,1020.96
2017-04-22T11:23:52.581Z,1020.99
2017-04-22T11:25:02.810Z,1020.99
2017-04-22T11:26:12.434Z,1020.95
2017-04-22T11:27:22.030Z,1020.93
2017-04-22T11:28:31.636Z,1020.88
2017-04-22T11:29:42.209Z,1020.89
2017-04-22T11:30:52.433Z,1020.9
2017-04-22T11:32:02.363Z,1020.89
2017-04-22T11:33:11.646Z,1020.87
2017-04-22T11:34:21.891Z,1020.83
2017-04-22T11:35:32.410Z,1020.78
2017-04-22T11:36:42.622Z,1020.88
2017-04-22T11:37:52.285Z,1020.84
2017-04-22T11:39:02.202Z,1020.8
2017-04-22T11:40:12.111Z,1020.78
2017-04-22T11:41:22.071Z,1020.74
2017-04-22T11:42:32.014Z,1020.76
2017-04-22T11:43:41.924Z,1020.73
2017-04-22T11:44:52.139Z,1020.77
2017-04-22T11:46:02.060Z,1020.68
2017-04-22T11:47:12.120Z,1020.74
2017-04-22T11:48:21.736Z,1020.8
2017-04-22T11:49:31.947Z,1020.81
2017-04-22T11:50:41.551Z,1020.78
2017-04-22T11:51:51.485Z,1020.74
2017-04-22T11:53:01.749Z,1020.81
2017-04-22T11:54:11.870Z,1020.78
2017-04-22T11:55:21.780Z,1020.8
2017-04-22T11:56:31.712Z,1020.73
2017-04-22T11:57:41.629Z,1020.69
2017-04-22T11:58:52.170Z,1020.69
2017-04-22T12:00:02.416Z,1020.7
2017-04-22T12:01:12.646Z,1020.74
2017-04-22T12:02:22.867Z,1020.71
2017-04-22T12:03:32.469Z,1020.77
2017-04-22T12:04:42.858Z,1020.77
2017-04-22T12:05:53.074Z,1020.65
2017-04-22T12:07:03.306Z,1020.64
2017-04-22T12:08:12.310Z,1020.59
2017-04-22T12:09:22.223Z,1020.57
2017-04-22T12:10:32.620Z,1020.56
2017-04-22T12:11:42.564Z,1020.54
2017-04-22T12:12:52.823Z,1020.55
2017-04-22T12:14:03.045Z,1020.46
2017-04-22T12:15:13.270Z,1020.49
2017-04-22T12:16:23.819Z,1020.53
2017-04-22T12:17:34.030Z,1020.5
2017-04-22T12:18:44.259Z,1020.49
2017-04-22T12:19:54.200Z,1020.5
2017-04-22T12:21:03.794Z,1020.47
2017-04-22T12:22:13.758Z,1020.46
2017-04-22T12:23:23.805Z,1020.49
2017-04-22T12:24:34.039Z,1020.46
2017-04-22T12:25:43.963Z,1020.43
2017-04-22T12:26:53.909Z,1020.46
2017-04-22T12:28:04.400Z,1020.44
2017-04-22T12:29:13.744Z,1020.45
2017-04-22T12:30:23.778Z,1020.44
2017-04-22T12:31:33.708Z,1020.41
2017-04-22T12:32:43.333Z,1020.42
2017-04-22T12:33:53.722Z,1020.39
2017-04-22T12:35:03.639Z,1020.41
2017-04-22T12:36:13.263Z,1020.42
2017-04-22T12:37:22.577Z,1020.38
2017-04-22T12:38:32.483Z,1020.3
2017-04-22T12:39:42.254Z,1020.35
2017-04-22T12:40:52.500Z,1020.47
2017-04-22T12:42:02.416Z,1020.48
2017-04-22T12:43:12.641Z,1020.49
2017-04-22T12:44:22.907Z,1020.46
2017-04-22T12:45:33.506Z,1020.39
2017-04-22T12:46:43.461Z,1020.43
2017-04-22T12:47:53.390Z,1020.45
2017-04-22T12:49:03.633Z,1020.42
2017-04-22T12:50:13.946Z,1020.47
2017-04-22T12:51:23.556Z,1020.47
2017-04-22T12:52:33.776Z,1020.41
2017-04-22T12:53:43.699Z,1020.4
2017-04-22T12:54:53.603Z,1020.4
2017-04-22T12:56:03.593Z,1020.36
2017-04-22T12:57:13.739Z,1020.37
2017-04-22T12:58:23.492Z,1020.34
2017-04-22T12:59:33.448Z,1020.38
2017-04-22T13:00:43.409Z,1020.34
2017-04-22T13:01:53.349Z,1020.31
2017-04-22T13:03:03.518Z,1020.29
2017-04-22T13:04:13.562Z,1020.34
2017-04-22T13:05:23.568Z,1020.31
2017-04-22T13:06:33.331Z,1020.24
2017-04-22T13:07:43.286Z,1020.28
2017-04-22T13:08:53.809Z,1020.3
2017-04-22T13:10:03.835Z,1020.29
2017-04-22T13:11:13.498Z,1020.31
2017-04-22T13:12:24.212Z,1020.33
2017-04-22T13:13:34.283Z,1020.26
2017-04-22T13:14:44.970Z,1020.24
2017-04-22T13:15:55.300Z,1020.31
2017-04-22T13:17:04.956Z,1020.26
2017-04-22T13:18:14.940Z,1020.31
2017-04-22T13:19:25.214Z,1020.26
2017-04-22T13:20:35.379Z,1020.21
2017-04-22T13:21:45.680Z,1020.22
2017-04-22T13:22:56.150Z,1020.22
2017-04-22T13:24:06.844Z,1020.17
2017-04-22T13:25:16.876Z,1020.18
2017-04-22T13:26:26.771Z,1020.14
2017-04-22T13:27:38.065Z,1020.21
2017-04-22T13:28:48.029Z,1020.18
2017-04-22T13:29:57.691Z,1020.18
2017-04-22T13:31:07.711Z,1020.23
2017-04-22T13:32:17.538Z,1020.18
2017-04-22T13:33:27.559Z,1020.2
2017-04-22T13:34:37.377Z,1020.18
2017-04-22T13:35:47.361Z,1020.15
2017-04-22T13:36:57.410Z,1020.2
2017-04-22T13:38:07.731Z,1020.17
2017-04-22T13:39:17.538Z,1020.2
2017-04-22T13:40:27.557Z,1020.23
2017-04-22T13:41:37.318Z,1020.18
2017-04-22T13:42:47.530Z,1020.17
2017-04-22T13:43:58.922Z,1020.17
2017-04-22T13:45:09.039Z,1020.16
2017-04-22T13:46:19.025Z,1020.15
2017-04-22T13:47:29.013Z,1020.11
2017-04-22T13:48:38.439Z,1020.14
2017-04-22T13:49:48.998Z,1020.13
2017-04-22T13:50:59.264Z,1020.07
2017-04-22T13:52:09.363Z,1020.11
2017-04-22T13:53:19.437Z,1020.11
2017-04-22T13:54:29.381Z,1020.1
2017-04-22T13:55:39.017Z,1020.01
2017-04-22T13:56:49.343Z,1019.98
2017-04-22T13:57:59.269Z,1019.94
2017-04-22T13:59:08.907Z,1019.96
2017-04-22T14:00:18.900Z,1019.93
2017-04-22T14:01:29.427Z,1019.92
2017-04-22T14:02:39.425Z,1019.98
2017-04-22T14:03:49.536Z,1020
2017-04-22T14:04:59.515Z,1019.96
2017-04-22T14:06:09.866Z,1019.94
2017-04-22T14:07:20.329Z,1019.94
2017-04-22T14:08:30.474Z,1019.94
2017-04-22T14:09:40.543Z,1019.89
2017-04-22T14:10:50.277Z,1019.88
2017-04-22T14:12:00.552Z,1019.89